sensor_id;sensor_type;location;lat;lon;timestamp;temperature;humidity
3086;DHT22;52812;48.960;9.108;2023-07-13T00:00:30;18.80;99.90
3086;DHT22;52812;48.960;9.108;2023-07-13T00:02:57;18.80;99.90
3086;DHT22;52812;48.960;9.108;2023-07-13T00:05:23;18.70;99.90
3086;DHT22;52812;48.960;9.108;2023-07-13T00:07:51;18.70;99.90
3086;DHT22;52812;48.960;9.108;2023-07-13T00:10:17;18.70;99.90
3086;DHT22;52812;48.960;9.108;2023-07-13T00:12:44;18.70;99.90
3086;DHT22;52812;48.960;9.108;2023-07-13T00:15:16;18.70;99.90
3086;DHT22;52812;48.960;9.108;2023-07-13T00:17:42;18.70;99.90
3086;DHT22;52812;48.960;9.108;2023-07-13T00:20:11;18.70;99.90
3086;DHT22;52812;48.960;9.108;2023-07-13T00:22:37;18.70;99.90
3086;DHT22;52812;48.960;9.108;2023-07-13T00:25:03;18.70;99.90
3086;DHT22;52812;48.960;9.108;2023-07-13T00:27:29;18.80;99.90
3086;DHT22;52812;48.960;9.108;2023-07-13T00:29:57;18.70;99.90
3086;DHT22;52812;48.960;9.108;2023-07-13T00:32:23;18.60;99.90
3086;DHT22;52812;48.960;9.108;2023-07-13T00:34:51;18.60;99.90
3086;DHT22;52812;48.960;9.108;2023-07-13T00:37:17;18.60;99.90
3086;DHT22;52812;48.960;9.108;2023-07-13T00:39:43;18.60;99.90
3086;DHT22;52812;48.960;9.108;2023-07-13T00:42:08;18.60;99.90
3086;DHT22;52812;48.960;9.108;2023-07-13T00:44:34;18.50;99.90
3086;DHT22;52812;48.960;9.108;2023-07-13T00:47:00;18.50;99.90
3086;DHT22;52812;48.960;9.108;2023-07-13T00:49:28;18.50;99.90
3086;DHT22;52812;48.960;9.108;2023-07-13T00:52:13;18.40;99.90
3086;DHT22;52812;48.960;9.108;2023-07-13T00:54:43;18.30;99.90
3086;DHT22;52812;48.960;9.108;2023-07-13T00:57:14;18.20;99.90
3086;DHT22;52812;48.960;9.108;2023-07-13T00:59:42;18.20;99.90
3086;DHT22;52812;48.960;9.108;2023-07-13T01:02:09;18.10;99.90
3086;DHT22;52812;48.960;9.108;2023-07-13T01:04:35;18.10;99.90
3086;DHT22;52812;48.960;9.108;2023-07-13T01:07:01;18.00;99.90
3086;DHT22;52812;48.960;9.108;2023-07-13T01:09:27;18.00;99.90
3086;DHT22;52812;48.960;9.108;2023-07-13T01:11:52;17.90;99.90
3086;DHT22;52812;48.960;9.108;2023-07-13T01:14:19;17.90;99.90
3086;DHT22;52812;48.960;9.108;2023-07-13T01:16:46;17.80;99.90
3086;DHT22;52812;48.960;9.108;2023-07-13T01:19:42;17.80;99.90
3086;DHT22;52812;48.960;9.108;2023-07-13T01:22:15;17.70;99.90
3086;DHT22;52812;48.960;9.108;2023-07-13T01:24:42;17.70;99.90
3086;DHT22;52812;48.960;9.108;2023-07-13T01:27:10;17.60;99.90
3086;DHT22;52812;48.960;9.108;2023-07-13T01:29:37;17.70;99.90
3086;DHT22;52812;48.960;9.108;2023-07-13T01:32:09;17.70;99.90
3086;DHT22;52812;48.960;9.108;2023-07-13T01:34:36;17.60;99.90
3086;DHT22;52812;48.960;9.108;2023-07-13T01:37:03;17.60;99.90
3086;DHT22;52812;48.960;9.108;2023-07-13T01:39:29;17.60;99.90
3086;DHT22;52812;48.960;9.108;2023-07-13T01:41:55;17.60;99.90
3086;DHT22;52812;48.960;9.108;2023-07-13T01:44:20;17.60;99.90
3086;DHT22;52812;48.960;9.108;2023-07-13T01:46:46;17.50;99.90
3086;DHT22;52812;48.960;9.108;2023-07-13T01:49:12;17.50;99.90
3086;DHT22;52812;48.960;9.108;2023-07-13T01:51:37;17.50;99.90
3086;DHT22;52812;48.960;9.108;2023-07-13T01:54:03;17.50;99.90
3086;DHT22;52812;48.960;9.108;2023-07-13T01:56:28;17.40;99.90
3086;DHT22;52812;48.960;9.108;2023-07-13T01:58:54;17.30;99.90
3086;DHT22;52812;48.960;9.108;2023-07-13T02:01:20;17.30;99.90
3086;DHT22;52812;48.960;9.108;2023-07-13T02:03:45;17.20;99.90
3086;DHT22;52812;48.960;9.108;2023-07-13T02:06:12;17.10;99.90
3086;DHT22;52812;48.960;9.108;2023-07-13T02:08:37;17.00;99.90
3086;DHT22;52812;48.960;9.108;2023-07-13T02:11:03;17.00;99.90
3086;DHT22;52812;48.960;9.108;2023-07-13T02:13:29;16.90;99.90
3086;DHT22;52812;48.960;9.108;2023-07-13T02:15:55;16.80;99.90
3086;DHT22;52812;48.960;9.108;2023-07-13T02:18:20;16.80;99.90
3086;DHT22;52812;48.960;9.108;2023-07-13T02:20:46;16.70;99.90
3086;DHT22;52812;48.960;9.108;2023-07-13T02:23:12;16.60;99.90
3086;DHT22;52812;48.960;9.108;2023-07-13T02:25:37;16.60;99.90
3086;DHT22;52812;48.960;9.108;2023-07-13T02:28:03;16.50;99.90
3086;DHT22;52812;48.960;9.108;2023-07-13T02:30:29;16.30;99.90
3086;DHT22;52812;48.960;9.108;2023-07-13T02:32:56;16.20;99.90
3086;DHT22;52812;48.960;9.108;2023-07-13T02:35:22;16.20;99.90
3086;DHT22;52812;48.960;9.108;2023-07-13T02:37:48;16.00;99.90
3086;DHT22;52812;48.960;9.108;2023-07-13T02:40:14;16.00;99.90
3086;DHT22;52812;48.960;9.108;2023-07-13T02:42:40;15.90;99.90
3086;DHT22;52812;48.960;9.108;2023-07-13T02:45:07;15.90;99.90
3086;DHT22;52812;48.960;9.108;2023-07-13T02:47:33;15.80;99.90
3086;DHT22;52812;48.960;9.108;2023-07-13T02:49:59;15.80;99.90
3086;DHT22;52812;48.960;9.108;2023-07-13T02:52:25;15.80;99.90
3086;DHT22;52812;48.960;9.108;2023-07-13T02:54:51;15.80;99.90
3086;DHT22;52812;48.960;9.108;2023-07-13T02:57:16;15.70;99.90
3086;DHT22;52812;48.960;9.108;2023-07-13T02:59:42;15.60;99.90
3086;DHT22;52812;48.960;9.108;2023-07-13T03:02:08;15.50;99.90
3086;DHT22;52812;48.960;9.108;2023-07-13T03:04:37;15.50;99.90
3086;DHT22;52812;48.960;9.108;2023-07-13T03:07:04;15.50;99.90
3086;DHT22;52812;48.960;9.108;2023-07-13T03:09:30;15.30;99.90
3086;DHT22;52812;48.960;9.108;2023-07-13T03:11:56;15.40;99.90
3086;DHT22;52812;48.960;9.108;2023-07-13T03:14:22;15.40;99.90
3086;DHT22;52812;48.960;9.108;2023-07-13T03:16:48;15.30;99.90
3086;DHT22;52812;48.960;9.108;2023-07-13T03:19:13;15.30;99.90
3086;DHT22;52812;48.960;9.108;2023-07-13T03:21:39;15.30;99.90
3086;DHT22;52812;48.960;9.108;2023-07-13T03:24:05;15.20;99.90
3086;DHT22;52812;48.960;9.108;2023-07-13T03:26:31;15.10;99.90
3086;DHT22;52812;48.960;9.108;2023-07-13T03:28:57;15.10;99.90
3086;DHT22;52812;48.960;9.108;2023-07-13T03:31:26;15.10;99.90
3086;DHT22;52812;48.960;9.108;2023-07-13T03:33:54;15.10;99.90
3086;DHT22;52812;48.960;9.108;2023-07-13T03:36:25;15.10;99.90
3086;DHT22;52812;48.960;9.108;2023-07-13T03:38:53;15.00;99.90
3086;DHT22;52812;48.960;9.108;2023-07-13T03:41:20;15.10;99.90
3086;DHT22;52812;48.960;9.108;2023-07-13T03:43:46;15.00;99.90
3086;DHT22;52812;48.960;9.108;2023-07-13T03:46:16;15.10;99.90
3086;DHT22;52812;48.960;9.108;2023-07-13T03:48:43;15.00;99.90
3086;DHT22;52812;48.960;9.108;2023-07-13T03:51:10;15.00;99.90
3086;DHT22;52812;48.960;9.108;2023-07-13T03:53:38;15.00;99.90
3086;DHT22;52812;48.960;9.108;2023-07-13T03:56:05;15.00;99.90
3086;DHT22;52812;48.960;9.108;2023-07-13T03:58:36;15.10;99.90
3086;DHT22;52812;48.960;9.108;2023-07-13T04:01:04;15.20;99.90
3086;DHT22;52812;48.960;9.108;2023-07-13T04:03:32;15.20;99.90
3086;DHT22;52812;48.960;9.108;2023-07-13T04:06:02;15.30;99.90
3086;DHT22;52812;48.960;9.108;2023-07-13T04:08:34;15.40;99.90
3086;DHT22;52812;48.960;9.108;2023-07-13T04:11:01;15.40;99.90
3086;DHT22;52812;48.960;9.108;2023-07-13T04:13:27;15.40;99.90
3086;DHT22;52812;48.960;9.108;2023-07-13T04:15:54;15.40;99.90
3086;DHT22;52812;48.960;9.108;2023-07-13T04:18:20;15.40;99.90
3086;DHT22;52812;48.960;9.108;2023-07-13T04:20:47;15.30;99.90
3086;DHT22;52812;48.960;9.108;2023-07-13T04:23:13;15.30;99.90
3086;DHT22;52812;48.960;9.108;2023-07-13T04:25:38;15.30;99.90
3086;DHT22;52812;48.960;9.108;2023-07-13T04:28:05;15.20;99.90
3086;DHT22;52812;48.960;9.108;2023-07-13T04:30:31;15.10;99.90
3086;DHT22;52812;48.960;9.108;2023-07-13T04:32:56;15.00;99.90
3086;DHT22;52812;48.960;9.108;2023-07-13T04:35:22;15.00;99.90
3086;DHT22;52812;48.960;9.108;2023-07-13T04:37:49;15.00;99.90
3086;DHT22;52812;48.960;9.108;2023-07-13T04:40:17;15.00;99.90
3086;DHT22;52812;48.960;9.108;2023-07-13T04:42:44;15.10;99.90
3086;DHT22;52812;48.960;9.108;2023-07-13T04:45:10;15.20;99.90
3086;DHT22;52812;48.960;9.108;2023-07-13T04:47:36;15.30;99.90
3086;DHT22;52812;48.960;9.108;2023-07-13T04:50:01;15.40;99.90
3086;DHT22;52812;48.960;9.108;2023-07-13T04:52:27;15.50;99.90
3086;DHT22;52812;48.960;9.108;2023-07-13T04:54:53;15.60;99.90
3086;DHT22;52812;48.960;9.108;2023-07-13T04:57:19;15.70;99.90
3086;DHT22;52812;48.960;9.108;2023-07-13T04:59:45;15.70;99.90
3086;DHT22;52812;48.960;9.108;2023-07-13T05:02:10;15.80;99.90
3086;DHT22;52812;48.960;9.108;2023-07-13T05:04:36;15.90;99.90
3086;DHT22;52812;48.960;9.108;2023-07-13T05:07:03;16.00;99.90
3086;DHT22;52812;48.960;9.108;2023-07-13T05:09:29;16.30;99.90
3086;DHT22;52812;48.960;9.108;2023-07-13T05:11:54;16.40;99.90
3086;DHT22;52812;48.960;9.108;2023-07-13T05:14:20;16.70;99.90
3086;DHT22;52812;48.960;9.108;2023-07-13T05:16:45;16.90;99.90
3086;DHT22;52812;48.960;9.108;2023-07-13T05:19:12;17.10;99.90
3086;DHT22;52812;48.960;9.108;2023-07-13T05:21:38;17.20;99.90
3086;DHT22;52812;48.960;9.108;2023-07-13T05:24:03;17.30;99.90
3086;DHT22;52812;48.960;9.108;2023-07-13T05:26:29;17.30;99.90
3086;DHT22;52812;48.960;9.108;2023-07-13T05:28:56;17.30;99.90
3086;DHT22;52812;48.960;9.108;2023-07-13T05:31:21;17.30;99.90
3086;DHT22;52812;48.960;9.108;2023-07-13T05:33:47;17.30;99.90
3086;DHT22;52812;48.960;9.108;2023-07-13T05:36:12;17.30;99.90
3086;DHT22;52812;48.960;9.108;2023-07-13T05:38:43;17.30;99.90
3086;DHT22;52812;48.960;9.108;2023-07-13T05:41:09;17.40;99.90
3086;DHT22;52812;48.960;9.108;2023-07-13T05:43:35;17.50;99.90
3086;DHT22;52812;48.960;9.108;2023-07-13T05:46:00;17.50;99.90
3086;DHT22;52812;48.960;9.108;2023-07-13T05:48:26;17.50;99.90
3086;DHT22;52812;48.960;9.108;2023-07-13T05:50:51;17.60;99.90
3086;DHT22;52812;48.960;9.108;2023-07-13T05:53:17;17.70;99.90
3086;DHT22;52812;48.960;9.108;2023-07-13T05:55:44;18.00;99.90
3086;DHT22;52812;48.960;9.108;2023-07-13T05:58:16;18.20;99.90
3086;DHT22;52812;48.960;9.108;2023-07-13T06:00:42;18.40;99.90
3086;DHT22;52812;48.960;9.108;2023-07-13T06:03:07;18.50;99.90
3086;DHT22;52812;48.960;9.108;2023-07-13T06:05:34;18.70;99.90
3086;DHT22;52812;48.960;9.108;2023-07-13T06:08:01;18.80;99.90
3086;DHT22;52812;48.960;9.108;2023-07-13T06:10:26;19.00;99.90
3086;DHT22;52812;48.960;9.108;2023-07-13T06:12:52;19.50;99.90
3086;DHT22;52812;48.960;9.108;2023-07-13T06:15:18;20.00;99.90
3086;DHT22;52812;48.960;9.108;2023-07-13T06:17:43;20.50;99.90
3086;DHT22;52812;48.960;9.108;2023-07-13T06:20:09;21.00;99.90
3086;DHT22;52812;48.960;9.108;2023-07-13T06:22:35;21.50;99.90
3086;DHT22;52812;48.960;9.108;2023-07-13T06:25:00;21.60;99.90
3086;DHT22;52812;48.960;9.108;2023-07-13T06:27:26;21.70;99.90
3086;DHT22;52812;48.960;9.108;2023-07-13T06:29:51;21.80;99.90
3086;DHT22;52812;48.960;9.108;2023-07-13T06:32:17;21.80;99.90
3086;DHT22;52812;48.960;9.108;2023-07-13T06:34:43;21.80;99.90
3086;DHT22;52812;48.960;9.108;2023-07-13T06:37:09;22.00;99.90
3086;DHT22;52812;48.960;9.108;2023-07-13T06:39:35;22.50;99.90
3086;DHT22;52812;48.960;9.108;2023-07-13T06:42:01;23.40;99.90
3086;DHT22;52812;48.960;9.108;2023-07-13T06:44:26;23.80;99.90
3086;DHT22;52812;48.960;9.108;2023-07-13T06:46:52;24.20;99.90
3086;DHT22;52812;48.960;9.108;2023-07-13T06:49:17;24.60;99.90
3086;DHT22;52812;48.960;9.108;2023-07-13T06:51:43;25.00;99.90
3086;DHT22;52812;48.960;9.108;2023-07-13T06:54:08;24.20;99.90
3086;DHT22;52812;48.960;9.108;2023-07-13T06:56:34;23.80;99.90
3086;DHT22;52812;48.960;9.108;2023-07-13T06:59:00;23.70;99.90
3086;DHT22;52812;48.960;9.108;2023-07-13T07:01:26;24.10;99.90
3086;DHT22;52812;48.960;9.108;2023-07-13T07:03:51;24.40;99.90
3086;DHT22;52812;48.960;9.108;2023-07-13T07:06:19;24.50;99.90
3086;DHT22;52812;48.960;9.108;2023-07-13T07:08:45;25.10;99.90
3086;DHT22;52812;48.960;9.108;2023-07-13T07:11:14;26.20;99.90
3086;DHT22;52812;48.960;9.108;2023-07-13T07:13:40;26.20;99.90
3086;DHT22;52812;48.960;9.108;2023-07-13T07:16:05;26.70;99.90
3086;DHT22;52812;48.960;9.108;2023-07-13T07:18:32;27.10;99.90
3086;DHT22;52812;48.960;9.108;2023-07-13T07:20:57;27.50;99.90
3086;DHT22;52812;48.960;9.108;2023-07-13T07:23:23;27.30;99.90
3086;DHT22;52812;48.960;9.108;2023-07-13T07:25:48;27.50;99.90
3086;DHT22;52812;48.960;9.108;2023-07-13T07:28:16;27.30;99.90
3086;DHT22;52812;48.960;9.108;2023-07-13T07:30:44;27.30;99.90
3086;DHT22;52812;48.960;9.108;2023-07-13T07:33:10;27.50;99.90
3086;DHT22;52812;48.960;9.108;2023-07-13T07:35:35;27.60;99.90
3086;DHT22;52812;48.960;9.108;2023-07-13T07:38:01;28.10;99.90
3086;DHT22;52812;48.960;9.108;2023-07-13T07:40:27;28.20;99.90
3086;DHT22;52812;48.960;9.108;2023-07-13T07:42:52;28.00;99.90
3086;DHT22;52812;48.960;9.108;2023-07-13T07:45:19;28.10;99.90
3086;DHT22;52812;48.960;9.108;2023-07-13T07:47:45;28.10;99.90
3086;DHT22;52812;48.960;9.108;2023-07-13T07:50:10;28.10;99.90
3086;DHT22;52812;48.960;9.108;2023-07-13T07:52:36;28.40;99.90
3086;DHT22;52812;48.960;9.108;2023-07-13T07:55:03;28.50;99.80
3086;DHT22;52812;48.960;9.108;2023-07-13T07:57:29;28.00;99.40
3086;DHT22;52812;48.960;9.108;2023-07-13T07:59:54;27.90;98.90
3086;DHT22;52812;48.960;9.108;2023-07-13T08:02:20;27.80;99.10
3086;DHT22;52812;48.960;9.108;2023-07-13T08:04:45;27.60;99.10
3086;DHT22;52812;48.960;9.108;2023-07-13T08:07:11;27.50;99.80
3086;DHT22;52812;48.960;9.108;2023-07-13T08:09:36;27.90;99.90
3086;DHT22;52812;48.960;9.108;2023-07-13T08:12:02;28.00;97.20
3086;DHT22;52812;48.960;9.108;2023-07-13T08:14:28;27.80;99.00
3086;DHT22;52812;48.960;9.108;2023-07-13T08:16:53;27.80;96.90
3086;DHT22;52812;48.960;9.108;2023-07-13T08:19:19;27.90;97.60
3086;DHT22;52812;48.960;9.108;2023-07-13T08:21:44;27.90;98.70
3086;DHT22;52812;48.960;9.108;2023-07-13T08:24:10;27.80;96.90
3086;DHT22;52812;48.960;9.108;2023-07-13T08:26:36;27.50;96.70
3086;DHT22;52812;48.960;9.108;2023-07-13T08:29:02;27.90;97.30
3086;DHT22;52812;48.960;9.108;2023-07-13T08:31:28;28.40;97.20
3086;DHT22;52812;48.960;9.108;2023-07-13T08:33:54;28.90;97.60
3086;DHT22;52812;48.960;9.108;2023-07-13T08:36:19;29.30;97.40
3086;DHT22;52812;48.960;9.108;2023-07-13T08:38:45;29.40;97.20
3086;DHT22;52812;48.960;9.108;2023-07-13T08:41:16;28.90;96.00
3086;DHT22;52812;48.960;9.108;2023-07-13T08:43:47;28.70;95.20
3086;DHT22;52812;48.960;9.108;2023-07-13T08:46:24;28.60;95.40
3086;DHT22;52812;48.960;9.108;2023-07-13T08:49:10;28.30;95.50
3086;DHT22;52812;48.960;9.108;2023-07-13T08:52:09;27.80;95.90
3086;DHT22;52812;48.960;9.108;2023-07-13T08:54:47;28.30;97.10
3086;DHT22;52812;48.960;9.108;2023-07-13T08:57:18;28.40;95.30
3086;DHT22;52812;48.960;9.108;2023-07-13T08:59:44;28.70;94.90
3086;DHT22;52812;48.960;9.108;2023-07-13T09:02:25;28.60;95.70
3086;DHT22;52812;48.960;9.108;2023-07-13T09:04:56;28.60;94.80
3086;DHT22;52812;48.960;9.108;2023-07-13T09:07:31;27.80;94.70
3086;DHT22;52812;48.960;9.108;2023-07-13T09:10:27;27.60;93.80
3086;DHT22;52812;48.960;9.108;2023-07-13T09:15:46;27.80;94.20
3086;DHT22;52812;48.960;9.108;2023-07-13T09:18:28;27.60;94.30
3086;DHT22;52812;48.960;9.108;2023-07-13T09:20:58;27.50;94.70
3086;DHT22;52812;48.960;9.108;2023-07-13T09:23:27;27.00;94.40
3086;DHT22;52812;48.960;9.108;2023-07-13T09:26:04;26.90;94.80
3086;DHT22;52812;48.960;9.108;2023-07-13T09:28:37;26.90;93.90
3086;DHT22;52812;48.960;9.108;2023-07-13T09:31:20;26.60;94.50
3086;DHT22;52812;48.960;9.108;2023-07-13T09:33:48;26.00;94.70
3086;DHT22;52812;48.960;9.108;2023-07-13T09:36:23;25.70;95.10
3086;DHT22;52812;48.960;9.108;2023-07-13T09:41:58;25.10;96.00
3086;DHT22;52812;48.960;9.108;2023-07-13T09:44:35;25.20;96.60
3086;DHT22;52812;48.960;9.108;2023-07-13T09:47:01;24.80;96.60
3086;DHT22;52812;48.960;9.108;2023-07-13T09:49:29;24.80;96.40
3086;DHT22;52812;48.960;9.108;2023-07-13T09:52:15;24.70;96.30
3086;DHT22;52812;48.960;9.108;2023-07-13T09:54:48;25.30;96.40
3086;DHT22;52812;48.960;9.108;2023-07-13T09:57:16;25.50;95.10
3086;DHT22;52812;48.960;9.108;2023-07-13T09:59:50;25.90;95.70
3086;DHT22;52812;48.960;9.108;2023-07-13T10:02:33;26.20;95.80
3086;DHT22;52812;48.960;9.108;2023-07-13T10:05:10;26.00;95.60
3086;DHT22;52812;48.960;9.108;2023-07-13T10:07:42;25.80;95.80
3086;DHT22;52812;48.960;9.108;2023-07-13T10:10:22;25.80;94.90
3086;DHT22;52812;48.960;9.108;2023-07-13T10:12:49;26.00;95.40
3086;DHT22;52812;48.960;9.108;2023-07-13T10:15:18;26.10;95.40
3086;DHT22;52812;48.960;9.108;2023-07-13T10:17:45;26.30;95.00
3086;DHT22;52812;48.960;9.108;2023-07-13T10:20:11;26.20;95.30
3086;DHT22;52812;48.960;9.108;2023-07-13T10:22:50;26.20;94.40
3086;DHT22;52812;48.960;9.108;2023-07-13T10:25:22;26.20;94.70
3086;DHT22;52812;48.960;9.108;2023-07-13T10:27:54;26.40;94.50
3086;DHT22;52812;48.960;9.108;2023-07-13T10:30:25;26.60;94.80
3086;DHT22;52812;48.960;9.108;2023-07-13T10:32:53;26.40;94.00
3086;DHT22;52812;48.960;9.108;2023-07-13T10:35:20;26.30;93.70
3086;DHT22;52812;48.960;9.108;2023-07-13T10:37:54;26.20;93.70
3086;DHT22;52812;48.960;9.108;2023-07-13T10:40:26;26.00;94.50
3086;DHT22;52812;48.960;9.108;2023-07-13T10:42:54;25.90;93.70
3086;DHT22;52812;48.960;9.108;2023-07-13T10:45:23;26.00;93.30
3086;DHT22;52812;48.960;9.108;2023-07-13T10:47:52;26.30;94.40
3086;DHT22;52812;48.960;9.108;2023-07-13T10:50:25;26.20;92.30
3086;DHT22;52812;48.960;9.108;2023-07-13T10:52:53;26.30;92.90
3086;DHT22;52812;48.960;9.108;2023-07-13T10:55:54;26.00;91.60
3086;DHT22;52812;48.960;9.108;2023-07-13T10:58:21;26.20;93.70
3086;DHT22;52812;48.960;9.108;2023-07-13T11:01:14;26.20;92.70
3086;DHT22;52812;48.960;9.108;2023-07-13T11:06:16;26.40;92.80
3086;DHT22;52812;48.960;9.108;2023-07-13T11:11:33;25.80;93.70
3086;DHT22;52812;48.960;9.108;2023-07-13T11:14:01;25.50;93.90
3086;DHT22;52812;48.960;9.108;2023-07-13T11:16:44;25.70;93.60
3086;DHT22;52812;48.960;9.108;2023-07-13T11:27:44;25.50;93.30
3086;DHT22;52812;48.960;9.108;2023-07-13T11:35:45;25.90;92.20
3086;DHT22;52812;48.960;9.108;2023-07-13T11:38:43;25.50;93.60
3086;DHT22;52812;48.960;9.108;2023-07-13T11:41:27;25.10;94.10
3086;DHT22;52812;48.960;9.108;2023-07-13T11:44:06;25.10;93.60
3086;DHT22;52812;48.960;9.108;2023-07-13T11:46:31;25.30;93.90
3086;DHT22;52812;48.960;9.108;2023-07-13T11:48:57;25.00;93.10
3086;DHT22;52812;48.960;9.108;2023-07-13T11:51:28;25.30;94.80
3086;DHT22;52812;48.960;9.108;2023-07-13T11:53:55;25.70;95.00
3086;DHT22;52812;48.960;9.108;2023-07-13T11:56:23;25.90;93.00
3086;DHT22;52812;48.960;9.108;2023-07-13T11:58:54;26.00;93.90
3086;DHT22;52812;48.960;9.108;2023-07-13T12:01:23;26.20;92.90
3086;DHT22;52812;48.960;9.108;2023-07-13T12:03:51;26.00;93.60
3086;DHT22;52812;48.960;9.108;2023-07-13T12:06:36;26.00;92.70
3086;DHT22;52812;48.960;9.108;2023-07-13T12:09:11;25.90;92.20
3086;DHT22;52812;48.960;9.108;2023-07-13T12:11:45;25.80;92.80
3086;DHT22;52812;48.960;9.108;2023-07-13T12:14:18;25.90;92.20
3086;DHT22;52812;48.960;9.108;2023-07-13T12:16:45;25.60;91.90
3086;DHT22;52812;48.960;9.108;2023-07-13T12:19:27;25.70;91.80
3086;DHT22;52812;48.960;9.108;2023-07-13T12:21:57;25.80;92.90
3086;DHT22;52812;48.960;9.108;2023-07-13T12:24:24;26.10;92.30
3086;DHT22;52812;48.960;9.108;2023-07-13T12:27:01;26.60;91.10
3086;DHT22;52812;48.960;9.108;2023-07-13T12:29:27;26.70;87.60
3086;DHT22;52812;48.960;9.108;2023-07-13T12:31:53;26.70;86.20
3086;DHT22;52812;48.960;9.108;2023-07-13T12:34:22;26.20;85.10
3086;DHT22;52812;48.960;9.108;2023-07-13T12:36:59;26.20;85.60
3086;DHT22;52812;48.960;9.108;2023-07-13T12:39:38;26.20;87.60
3086;DHT22;52812;48.960;9.108;2023-07-13T12:42:31;26.20;87.60
3086;DHT22;52812;48.960;9.108;2023-07-13T12:45:05;26.00;90.80
3086;DHT22;52812;48.960;9.108;2023-07-13T12:47:43;26.20;88.70
3086;DHT22;52812;48.960;9.108;2023-07-13T12:50:21;26.10;88.00
3086;DHT22;52812;48.960;9.108;2023-07-13T12:53:00;26.30;90.00
3086;DHT22;52812;48.960;9.108;2023-07-13T12:55:28;26.50;90.20
3086;DHT22;52812;48.960;9.108;2023-07-13T12:57:58;26.60;90.10
3086;DHT22;52812;48.960;9.108;2023-07-13T13:00:32;26.50;88.00
3086;DHT22;52812;48.960;9.108;2023-07-13T13:05:48;26.50;87.30
3086;DHT22;52812;48.960;9.108;2023-07-13T13:08:14;26.40;88.90
3086;DHT22;52812;48.960;9.108;2023-07-13T13:10:40;26.30;90.40
3086;DHT22;52812;48.960;9.108;2023-07-13T13:13:05;26.40;91.10
3086;DHT22;52812;48.960;9.108;2023-07-13T13:15:31;26.40;90.50
3086;DHT22;52812;48.960;9.108;2023-07-13T13:17:58;26.40;89.80
3086;DHT22;52812;48.960;9.108;2023-07-13T13:20:24;26.50;89.10
3086;DHT22;52812;48.960;9.108;2023-07-13T13:22:51;26.60;91.00
3086;DHT22;52812;48.960;9.108;2023-07-13T13:25:18;26.50;90.10
3086;DHT22;52812;48.960;9.108;2023-07-13T13:27:45;26.40;89.10
3086;DHT22;52812;48.960;9.108;2023-07-13T13:30:16;26.40;89.20
3086;DHT22;52812;48.960;9.108;2023-07-13T13:32:44;26.30;88.90
3086;DHT22;52812;48.960;9.108;2023-07-13T13:35:15;26.20;89.60
3086;DHT22;52812;48.960;9.108;2023-07-13T13:37:41;26.10;90.10
3086;DHT22;52812;48.960;9.108;2023-07-13T13:40:18;25.90;90.20
3086;DHT22;52812;48.960;9.108;2023-07-13T13:42:44;25.80;90.80
3086;DHT22;52812;48.960;9.108;2023-07-13T13:45:11;26.00;91.60
3086;DHT22;52812;48.960;9.108;2023-07-13T13:47:38;26.10;90.00
3086;DHT22;52812;48.960;9.108;2023-07-13T13:50:17;26.40;91.40
3086;DHT22;52812;48.960;9.108;2023-07-13T13:52:44;26.40;88.60
3086;DHT22;52812;48.960;9.108;2023-07-13T13:55:15;26.20;88.40
3086;DHT22;52812;48.960;9.108;2023-07-13T13:57:41;26.00;88.30
3086;DHT22;52812;48.960;9.108;2023-07-13T14:00:09;26.10;90.60
3086;DHT22;52812;48.960;9.108;2023-07-13T14:02:37;26.50;90.30
3086;DHT22;52812;48.960;9.108;2023-07-13T14:05:03;26.60;86.90
3086;DHT22;52812;48.960;9.108;2023-07-13T14:07:29;26.50;87.30
3086;DHT22;52812;48.960;9.108;2023-07-13T14:09:58;26.30;86.50
3086;DHT22;52812;48.960;9.108;2023-07-13T14:12:24;26.00;85.10
3086;DHT22;52812;48.960;9.108;2023-07-13T14:14:53;25.80;87.20
3086;DHT22;52812;48.960;9.108;2023-07-13T14:17:24;25.80;88.10
3086;DHT22;52812;48.960;9.108;2023-07-13T14:19:51;25.90;88.40
3086;DHT22;52812;48.960;9.108;2023-07-13T14:22:25;26.00;88.20
3086;DHT22;52812;48.960;9.108;2023-07-13T14:24:54;26.00;88.70
3086;DHT22;52812;48.960;9.108;2023-07-13T14:27:21;26.00;90.40
3086;DHT22;52812;48.960;9.108;2023-07-13T14:29:47;25.90;88.90
3086;DHT22;52812;48.960;9.108;2023-07-13T14:32:13;25.90;90.10
3086;DHT22;52812;48.960;9.108;2023-07-13T14:34:39;26.10;90.70
3086;DHT22;52812;48.960;9.108;2023-07-13T14:37:08;26.20;90.00
3086;DHT22;52812;48.960;9.108;2023-07-13T14:39:37;25.80;90.40
3086;DHT22;52812;48.960;9.108;2023-07-13T14:42:03;25.90;88.90
3086;DHT22;52812;48.960;9.108;2023-07-13T14:44:30;25.80;90.20
3086;DHT22;52812;48.960;9.108;2023-07-13T14:46:58;25.90;89.30
3086;DHT22;52812;48.960;9.108;2023-07-13T14:49:30;26.00;89.00
3086;DHT22;52812;48.960;9.108;2023-07-13T14:51:59;26.00;90.60
3086;DHT22;52812;48.960;9.108;2023-07-13T14:54:25;26.00;90.00
3086;DHT22;52812;48.960;9.108;2023-07-13T14:56:51;26.00;90.40
3086;DHT22;52812;48.960;9.108;2023-07-13T14:59:17;25.80;90.40
3086;DHT22;52812;48.960;9.108;2023-07-13T15:01:48;25.80;90.60
3086;DHT22;52812;48.960;9.108;2023-07-13T15:04:14;25.60;90.40
3086;DHT22;52812;48.960;9.108;2023-07-13T15:07:01;25.50;91.00
3086;DHT22;52812;48.960;9.108;2023-07-13T15:09:28;25.40;90.90
3086;DHT22;52812;48.960;9.108;2023-07-13T15:11:58;25.50;91.10
3086;DHT22;52812;48.960;9.108;2023-07-13T15:14:24;25.70;91.30
3086;DHT22;52812;48.960;9.108;2023-07-13T15:16:53;25.80;90.10
3086;DHT22;52812;48.960;9.108;2023-07-13T15:19:20;25.90;90.20
3086;DHT22;52812;48.960;9.108;2023-07-13T15:21:46;25.90;90.50
3086;DHT22;52812;48.960;9.108;2023-07-13T15:24:13;25.70;90.40
3086;DHT22;52812;48.960;9.108;2023-07-13T15:26:38;25.50;90.50
3086;DHT22;52812;48.960;9.108;2023-07-13T15:29:05;25.50;90.70
3086;DHT22;52812;48.960;9.108;2023-07-13T15:31:32;25.30;90.50
3086;DHT22;52812;48.960;9.108;2023-07-13T15:33:59;25.40;91.30
3086;DHT22;52812;48.960;9.108;2023-07-13T15:36:26;25.50;91.00
3086;DHT22;52812;48.960;9.108;2023-07-13T15:38:53;25.50;90.70
3086;DHT22;52812;48.960;9.108;2023-07-13T15:41:26;25.50;90.90
3086;DHT22;52812;48.960;9.108;2023-07-13T15:43:53;25.50;91.20
3086;DHT22;52812;48.960;9.108;2023-07-13T15:46:21;25.30;91.00
3086;DHT22;52812;48.960;9.108;2023-07-13T15:48:48;25.30;91.80
3086;DHT22;52812;48.960;9.108;2023-07-13T15:51:28;25.40;90.90
3086;DHT22;52812;48.960;9.108;2023-07-13T15:53:56;25.40;90.60
3086;DHT22;52812;48.960;9.108;2023-07-13T15:56:25;25.20;90.30
3086;DHT22;52812;48.960;9.108;2023-07-13T15:58:52;25.20;90.20
3086;DHT22;52812;48.960;9.108;2023-07-13T16:01:18;25.30;90.20
3086;DHT22;52812;48.960;9.108;2023-07-13T16:03:48;25.30;90.50
3086;DHT22;52812;48.960;9.108;2023-07-13T16:06:16;25.30;90.40
3086;DHT22;52812;48.960;9.108;2023-07-13T16:08:43;25.30;90.40
3086;DHT22;52812;48.960;9.108;2023-07-13T16:11:16;25.30;90.60
3086;DHT22;52812;48.960;9.108;2023-07-13T16:13:43;25.30;90.60
3086;DHT22;52812;48.960;9.108;2023-07-13T16:16:11;25.30;90.30
3086;DHT22;52812;48.960;9.108;2023-07-13T16:18:37;25.20;90.60
3086;DHT22;52812;48.960;9.108;2023-07-13T16:21:04;25.20;91.00